Time;durP1;ratioP1;P1;durP2;ratioP2;P2;SDS_P1;SDS_P2;PMS_P1;PMS_P2;Temp;Humidity;BMP_temperature;BMP_pressure;BME280_temperature;BME280_humidity;BME280_pressure;Samples;Min_cycle;Max_cycle;Signal;HPM_P1;HPM_P2
2022/06/28 00:01:11;;;;;;;;;;;;;;;;;;8412989;27;27407;-73
2022/06/28 00:05:12;;;;;;;;;;;;;;;;;;8417334;27;27557;-73
2022/06/28 00:09:12;;;;;;;;;;;;;;;;;;8415002;27;27088;-73
2022/06/28 00:13:12;;;;;;;;;;;;;;;;;;8416542;27;28443;-73
2022/06/28 00:17:12;;;;;;;;;;;;;;;;;;8414644;27;27319;-73
2022/06/28 00:21:12;;;;;;;;;;;;;;;;;;8415568;27;27487;-73
2022/06/28 00:25:12;;;;;;;;;;;;;;;;;;8413428;27;27789;-73
2022/06/28 00:29:13;;;;;;;;;;;;;;;;;;8413048;27;46379;-73
2022/06/28 00:33:13;;;;;;;;;;;;;;;;;;8414409;27;27091;-73
2022/06/28 00:37:13;;;;;;;;;;;;;;;;;;8412818;27;27467;-73
2022/06/28 00:41:13;;;;;;;;;;;;;;;;;;8415044;27;27194;-73
2022/06/28 00:45:13;;;;;;;;;;;;;;;;;;8414830;27;28498;-73
2022/06/28 00:49:13;;;;;;;;;;;;;;;;;;8413026;27;28992;-73
2022/06/28 00:53:13;;;;;;;;;;;;;;;;;;8413816;27;27288;-73
2022/06/28 00:57:14;;;;;;;;;;;;;;;;;;8416955;27;27377;-73
2022/06/28 01:01:14;;;;;;;;;;;;;;;;;;8409463;27;27226;-73
2022/06/28 01:05:14;;;;;;;;;;;;;;;;;;8415539;27;28209;-73
2022/06/28 01:09:14;;;;;;;;;;;;;;;;;;8415889;27;27141;-73
2022/06/28 01:13:14;;;;;;;;;;;;;;;;;;8415088;27;27517;-73
2022/06/28 01:17:14;;;;;;;;;;;;;;;;;;8408895;27;27392;-73
2022/06/28 01:21:14;;;;;;;;;;;;;;;;;;8408805;27;27502;-73
2022/06/28 01:25:15;;;;;;;;;;;;;;;;;;8411856;27;27891;-73
2022/06/28 01:29:15;;;;;;;;;;;;;;;;;;8410930;27;27237;-73
2022/06/28 01:33:15;;;;;;;;;;;;;;;;;;8410221;27;27114;-73
2022/06/28 01:37:15;;;;;;;;;;;;;;;;;;8410695;27;27474;-73
2022/06/28 01:41:33;;;;;;;;;;;;;;;;;;8410153;27;27524;-73
2022/06/28 01:45:34;;;;;;;;;;;;;;;;;;8409973;27;27565;-73
2022/06/28 01:49:34;;;;;;;;;;;;;;;;;;8409695;27;27572;-73
2022/06/28 01:53:34;;;;;;;;;;;;;;;;;;8409819;27;27594;-73
2022/06/28 01:57:34;;;;;;;;;;;;;;;;;;8409187;27;27640;-73
2022/06/28 02:01:36;;;;;;;;;;;;;;;;;;8411080;27;28560;-73
2022/06/28 02:05:36;;;;;;;;;;;;;;;;;;8413029;27;27290;-73
2022/06/28 02:09:37;;;;;;;;;;;;;;;;;;8418532;27;28440;-73
2022/06/28 02:13:37;;;;;;;;;;;;;;;;;;8412663;27;27491;-73
2022/06/28 02:17:37;;;;;;;;;;;;;;;;;;8413370;27;27932;-73
2022/06/28 02:21:37;;;;;;;;;;;;;;;;;;8418097;27;29616;-73
2022/06/28 02:25:37;;;;;;;;;;;;;;;;;;8405331;27;27196;-73
2022/06/28 02:29:37;;;;;;;;;;;;;;;;;;8410140;27;27449;-73
2022/06/28 02:33:37;;;;;;;;;;;;;;;;;;8411683;27;27456;-73
2022/06/28 02:41:57;;;;;;;;;;;;;;;;;;8405884;27;27129;-73
2022/06/28 02:45:57;;;;;;;;;;;;;;;;;;8412622;27;27340;-73
2022/06/28 02:49:57;;;;;;;;;;;;;;;;;;8411521;27;27383;-73
2022/06/28 02:53:57;;;;;;;;;;;;;;;;;;8411043;27;27662;-73
2022/06/28 02:57:57;;;;;;;;;;;;;;;;;;8410359;27;27302;-73
2022/06/28 03:01:57;;;;;;;;;;;;;;;;;;8410792;27;27355;-73
2022/06/28 03:06:00;;;;;;;;;;;;;;;;;;8412627;27;27226;-73
2022/06/28 03:10:00;;;;;;;;;;;;;;;;;;8415969;27;27214;-73
2022/06/28 03:14:00;;;;;;;;;;;;;;;;;;8410660;27;28021;-73
2022/06/28 03:18:00;;;;;;;;;;;;;;;;;;8408976;27;27401;-73
2022/06/28 03:22:00;;;;;;;;;;;;;;;;;;8409536;27;27482;-73
2022/06/28 03:26:01;;;;;;;;;;;;;;;;;;8413130;27;28351;-73
2022/06/28 03:30:01;;;;;;;;;;;;;;;;;;8408944;27;27462;-73
2022/06/28 03:34:01;;;;;;;;;;;;;;;;;;8412620;27;27426;-73
2022/06/28 03:38:01;;;;;;;;;;;;;;;;;;8412876;27;27229;-73
2022/06/28 03:42:01;;;;;;;;;;;;;;;;;;8412595;27;27159;-73
2022/06/28 03:46:01;;;;;;;;;;;;;;;;;;8410201;27;27269;-73
2022/06/28 03:50:01;;;;;;;;;;;;;;;;;;8408313;27;27454;-73
2022/06/28 03:54:02;;;;;;;;;;;;;;;;;;8409249;27;27117;-73
2022/06/28 03:58:02;;;;;;;;;;;;;;;;;;8406251;27;27698;-73
2022/06/28 04:02:02;;;;;;;;;;;;;;;;;;8408228;27;28067;-73
2022/06/28 04:06:02;;;;;;;;;;;;;;;;;;8407313;27;27816;-74
2022/06/28 04:10:02;;;;;;;;;;;;;;;;;;8407030;27;27503;-73
2022/06/28 04:14:02;;;;;;;;;;;;;;;;;;8405811;27;27571;-73
2022/06/28 04:18:02;;;;;;;;;;;;;;;;;;8407378;27;27411;-73
2022/06/28 04:22:03;;;;;;;;;;;;;;;;;;8408236;27;27421;-73
2022/06/28 04:26:03;;;;;;;;;;;;;;;;;;8412176;27;27391;-73
2022/06/28 04:30:03;;;;;;;;;;;;;;;;;;8412679;27;27113;-73
2022/06/28 04:34:03;;;;;;;;;;;;;;;;;;8410733;27;28618;-73
2022/06/28 04:38:03;;;;;;;;;;;;;;;;;;8414280;27;27493;-73
2022/06/28 04:42:05;;;;;;;;;;;;;;;;;;8416464;27;27157;-73
2022/06/28 04:46:05;;;;;;;;;;;;;;;;;;8416049;27;27375;-73
2022/06/28 04:50:05;;;;;;;;;;;;;;;;;;8412563;27;27574;-73
2022/06/28 04:54:06;;;;;;;;;;;;;;;;;;8417029;27;28461;-73
2022/06/28 04:58:06;;;;;;;;;;;;;;;;;;8411336;27;28261;-73
2022/06/28 05:02:06;;;;;;;;;;;;;;;;;;8416300;27;27197;-73
2022/06/28 05:06:06;;;;;;;;;;;;;;;;;;8419542;27;28551;-73
2022/06/28 05:10:06;;;;;;;;;;;;;;;;;;8410013;27;27203;-73
2022/06/28 05:14:06;;;;;;;;;;;;;;;;;;8413047;27;27308;-73
2022/06/28 05:18:07;;;;;;;;;;;;;;;;;;8410407;27;27342;-73
2022/06/28 05:22:08;;;;;;;;;;;;;;;;;;8415203;27;27335;-73
2022/06/28 05:26:09;;;;;;;;;;;;;;;;;;8415657;27;27261;-73
2022/06/28 05:30:09;;;;;;;;;;;;;;;;;;8415223;27;27338;-73
2022/06/28 05:34:09;;;;;;;;;;;;;;;;;;8410684;27;27163;-73
2022/06/28 05:38:09;;;;;;;;;;;;;;;;;;8416339;27;28341;-74
2022/06/28 05:42:10;;;;;;;;;;;;;;;;;;8412981;27;27351;-73
2022/06/28 05:46:10;;;;;;;;;;;;;;;;;;8415501;27;27124;-73
2022/06/28 05:50:10;;;;;;;;;;;;;;;;;;8414504;27;27307;-73
2022/06/28 05:54:11;;;;;;;;;;;;;;;;;;8410983;27;27364;-73
2022/06/28 05:58:11;;;;;;;;;;;;;;;;;;8412625;27;27504;-73
2022/06/28 06:02:11;;;;;;;;;;;;;;;;;;8411325;27;27691;-73
2022/06/28 06:06:11;;;;;;;;;;;;;;;;;;8416816;27;27886;-73
2022/06/28 06:10:11;;;;;;;;;;;;;;;;;;8410020;27;27503;-73
2022/06/28 06:14:11;;;;;;;;;;;;;;;;;;8415939;27;28368;-73
2022/06/28 06:18:11;;;;;;;;;;;;;;;;;;8409628;27;27564;-73
2022/06/28 06:22:11;;;;;;;;;;;;;;;;;;8414377;27;28173;-73
2022/06/28 06:26:12;;;;;;;;;;;;;;;;;;8413708;27;28280;-73
2022/06/28 06:30:12;;;;;;;;;;;;;;;;;;8410873;27;28019;-73
2022/06/28 06:34:13;;;;;;;;;;;;;;;;;;8412580;27;27466;-73
2022/06/28 06:38:13;;;;;;;;;;;;;;;;;;8413554;27;27304;-73
2022/06/28 06:42:13;;;;;;;;;;;;;;;;;;8410736;27;27557;-73
2022/06/28 06:46:13;;;;;;;;;;;;;;;;;;8412049;27;28266;-73
2022/06/28 06:50:14;;;;;;;;;;;;;;;;;;8409959;27;27580;-73
2022/06/28 06:54:14;;;;;;;;;;;;;;;;;;8413977;27;27633;-73
2022/06/28 06:58:14;;;;;;;;;;;;;;;;;;8413735;27;27375;-72
2022/06/28 07:02:14;;;;;;;;;;;;;;;;;;8418029;27;27565;-73
2022/06/28 07:06:14;;;;;;;;;;;;;;;;;;8417572;27;27253;-72
2022/06/28 07:10:14;;;;;;;;;;;;;;;;;;8411588;27;27146;-73
2022/06/28 07:14:17;;;;;;;;;;;;;;;;;;8414400;27;27839;-73
2022/06/28 07:18:17;;;;;;;;;;;;;;;;;;8413518;27;27456;-73
2022/06/28 07:22:17;;;;;;;;;;;;;;;;;;8412740;27;28099;-73
2022/06/28 07:26:18;;;;;;;;;;;;;;;;;;8413112;27;27985;-73
2022/06/28 07:30:18;;;;;;;;;;;;;;;;;;8408833;27;28555;-73
2022/06/28 07:34:18;;;;;;;;;;;;;;;;;;8406994;27;27403;-73
2022/06/28 07:38:18;;;;;;;;;;;;;;;;;;8412798;27;28298;-73
2022/06/28 07:42:18;;;;;;;;;;;;;;;;;;8413738;27;29722;-73
2022/06/28 07:46:19;;;;;;;;;;;;;;;;;;8407438;27;27284;-73
2022/06/28 07:54:38;;;;;;;;;;;;;;;;;;8409032;27;27257;-73
2022/06/28 07:58:40;;;;;;;;;;;;;;;;;;8419751;27;27436;-73
2022/06/28 08:02:40;;;;;;;;;;;;;;;;;;8417961;27;27453;-74
2022/06/28 08:06:40;;;;;;;;;;;;;;;;;;8419353;27;27369;-74
2022/06/28 08:10:40;;;;;;;;;;;;;;;;;;8414503;27;27450;-74
2022/06/28 08:14:40;;;;;;;;;;;;;;;;;;8411690;27;27331;-74
2022/06/28 08:18:41;;;;;;;;;;;;;;;;;;8419947;27;28192;-74
2022/06/28 08:22:41;;;;;;;;;;;;;;;;;;8415415;27;27445;-74
2022/06/28 08:26:42;;;;;;;;;;;;;;;;;;8415483;27;27470;-74
2022/06/28 08:30:42;;;;;;;;;;;;;;;;;;8418574;27;27484;-74
2022/06/28 08:34:44;;;;;;;;;;;;;;;;;;8419326;27;27529;-74
2022/06/28 08:38:45;;;;;;;;;;;;;;;;;;8413666;27;27879;-74
2022/06/28 08:42:45;;;;;;;;;;;;;;;;;;8418826;27;27106;-75
2022/06/28 08:46:47;;;;;;;;;;;;;;;;;;8416716;27;27148;-73
2022/06/28 08:50:47;;;;;;;;;;;;;;;;;;8416740;27;27376;-74
2022/06/28 08:54:47;;;;;;;;;;;;;;;;;;8416992;27;27565;-73
2022/06/28 08:58:48;;;;;;;;;;;;;;;;;;8413262;27;27316;-74
2022/06/28 09:02:48;;;;;;;;;;;;;;;;;;8417048;27;27844;-73
2022/06/28 09:06:48;;;;;;;;;;;;;;;;;;8416344;27;27761;-74
2022/06/28 09:10:48;;;;;;;;;;;;;;;;;;8414918;27;27494;-74
2022/06/28 09:14:48;;;;;;;;;;;;;;;;;;8418263;27;27463;-74
2022/06/28 09:18:48;;;;;;;;;;;;;;;;;;8413583;27;27515;-73
2022/06/28 09:22:49;;;;;;;;;;;;;;;;;;8414497;27;28319;-73
2022/06/28 09:26:49;;;;;;;;;;;;;;;;;;8415521;27;27426;-74
2022/06/28 09:30:50;;;;;;;;;;;;;;;;;;8414227;27;27555;-74
2022/06/28 09:34:50;;;;;;;;;;;;;;;;;;8415934;27;27573;-74
2022/06/28 09:38:50;;;;;;;;;;;;;;;;;;8414394;27;27371;-74
2022/06/28 09:42:50;;;;;;;;;;;;;;;;;;8408986;27;27624;-74
2022/06/28 09:46:52;;;;;;;;;;;;;;;;;;8411178;27;27549;-74
2022/06/28 09:50:52;;;;;;;;;;;;;;;;;;8410784;27;27987;-74
2022/06/28 09:54:52;;;;;;;;;;;;;;;;;;8413345;27;27218;-72
2022/06/28 09:58:52;;;;;;;;;;;;;;;;;;8413649;27;28598;-74
2022/06/28 10:02:52;;;;;;;;;;;;;;;;;;8417271;27;28308;-73
2022/06/28 10:06:53;;;;;;;;;;;;;;;;;;8411011;27;27836;-74
2022/06/28 10:10:53;;;;;;;;;;;;;;;;;;8409035;27;28088;-74
2022/06/28 10:15:02;;;;;;;;;;;;;;;;;;8407871;27;27739;-73
2022/06/28 10:19:02;;;;;;;;;;;;;;;;;;8409197;27;27149;-74
2022/06/28 10:23:02;;;;;;;;;;;;;;;;;;8408639;27;27383;-73
2022/06/28 10:27:02;;;;;;;;;;;;;;;;;;8415057;27;28637;-73
2022/06/28 10:31:02;;;;;;;;;;;;;;;;;;8413929;27;27878;-74
2022/06/28 10:35:03;;;;;;;;;;;;;;;;;;8408929;27;28302;-74
2022/06/28 10:39:03;;;;;;;;;;;;;;;;;;8412096;27;27428;-74
2022/06/28 10:43:03;;;;;;;;;;;;;;;;;;8411065;27;27426;-74
2022/06/28 10:47:03;;;;;;;;;;;;;;;;;;8412939;27;27300;-74
2022/06/28 10:51:03;;;;;;;;;;;;;;;;;;8409873;27;28285;-74
2022/06/28 10:55:03;;;;;;;;;;;;;;;;;;8411418;27;27936;-75
2022/06/28 10:59:04;;;;;;;;;;;;;;;;;;8416942;27;28649;-75
2022/06/28 11:03:04;;;;;;;;;;;;;;;;;;8414649;27;28297;-75
2022/06/28 11:07:04;;;;;;;;;;;;;;;;;;8412393;27;27179;-74
2022/06/28 11:11:05;;;;;;;;;;;;;;;;;;8413533;27;27648;-74
2022/06/28 11:15:05;;;;;;;;;;;;;;;;;;8413756;27;28774;-75
2022/06/28 11:19:05;;;;;;;;;;;;;;;;;;8413602;27;27121;-74
2022/06/28 11:23:05;;;;;;;;;;;;;;;;;;8409210;27;27178;-74
2022/06/28 11:27:21;;;;;;;;;;;;;;;;;;8413499;27;27370;-74
2022/06/28 11:31:21;;;;;;;;;;;;;;;;;;8411922;27;27651;-74
2022/06/28 11:35:23;;;;;;;;;;;;;;;;;;8414349;27;27387;-74
2022/06/28 11:39:23;;;;;;;;;;;;;;;;;;8414769;27;27193;-74
2022/06/28 11:43:26;;;;;;;;;;;;;;;;;;8414570;27;27460;-74
2022/06/28 11:47:26;;;;;;;;;;;;;;;;;;8420851;27;28408;-74
2022/06/28 11:51:26;;;;;;;;;;;;;;;;;;8412667;27;27290;-74
2022/06/28 11:55:27;;;;;;;;;;;;;;;;;;8416975;27;28437;-74
2022/06/28 11:59:27;;;;;;;;;;;;;;;;;;8420309;27;28399;-74
2022/06/28 12:03:27;;;;;;;;;;;;;;;;;;8414882;27;27697;-74
2022/06/28 12:07:27;;;;;;;;;;;;;;;;;;8418541;27;27707;-75
2022/06/28 12:11:27;;;;;;;;;;;;;;;;;;8416929;27;27189;-75
2022/06/28 12:15:28;;;;;;;;;;;;;;;;;;8419132;27;27613;-74
2022/06/28 12:19:28;;;;;;;;;;;;;;;;;;8414187;27;27393;-74
2022/06/28 12:23:28;;;;;;;;;;;;;;;;;;8416881;27;27426;-75
2022/06/28 12:27:28;;;;;;;;;;;;;;;;;;8416815;27;27446;-74
2022/06/28 12:31:28;;;;;;;;;;;;;;;;;;8423049;27;29443;-74
2022/06/28 12:35:28;;;;;;;;;;;;;;;;;;8420108;27;28312;-74
2022/06/28 12:39:29;;;;;;;;;;;;;;;;;;8420978;27;28150;-74
2022/06/28 12:43:29;;;;;;;;;;;;;;;;;;8417176;27;27825;-73
2022/06/28 12:47:29;;;;;;;;;;;;;;;;;;8416122;27;27339;-74
2022/06/28 12:51:29;;;;;;;;;;;;;;;;;;8416325;27;27953;-73
2022/06/28 12:55:29;;;;;;;;;;;;;;;;;;8410127;27;27351;-74
2022/06/28 12:59:29;;;;;;;;;;;;;;;;;;8406340;27;27291;-74
2022/06/28 13:03:29;;;;;;;;;;;;;;;;;;8408352;27;27481;-74
2022/06/28 13:07:30;;;;;;;;;;;;;;;;;;8404764;27;27446;-74
2022/06/28 13:11:30;;;;;;;;;;;;;;;;;;8406983;27;27140;-74
2022/06/28 13:15:30;;;;;;;;;;;;;;;;;;8407414;27;27416;-74
2022/06/28 13:19:30;;;;;;;;;;;;;;;;;;8409639;27;27198;-74
2022/06/28 13:23:30;;;;;;;;;;;;;;;;;;8410684;27;27459;-74
2022/06/28 13:27:31;;;;;;;;;;;;;;;;;;8410634;27;27383;-74
2022/06/28 13:31:31;;;;;;;;;;;;;;;;;;8409351;27;28236;-74
2022/06/28 13:35:31;;;;;;;;;;;;;;;;;;8413917;27;27508;-74
2022/06/28 13:39:31;;;;;;;;;;;;;;;;;;8413714;27;27392;-74
2022/06/28 13:43:34;;;;;;;;;;;;;;;;;;8414020;27;28498;-73
2022/06/28 13:47:34;;;;;;;;;;;;;;;;;;8412556;27;27565;-73
2022/06/28 13:51:35;;;;;;;;;;;;;;;;;;8412017;27;27379;-73
2022/06/28 13:55:35;;;;;;;;;;;;;;;;;;8410235;27;27212;-73
2022/06/28 13:59:35;;;;;;;;;;;;;;;;;;8405333;27;27421;-73
2022/06/28 14:03:35;;;;;;;;;;;;;;;;;;8410443;27;28281;-73
2022/06/28 14:07:37;;;;;;;;;;;;;;;;;;8410376;27;27646;-73
2022/06/28 14:11:37;;;;;;;;;;;;;;;;;;8413524;27;27673;-73
2022/06/28 14:15:46;;;;;;;;;;;;;;;;;;8464413;27;28059;-72
2022/06/28 14:19:46;;;;;;;;;;;;;;;;;;8467307;27;27123;-72
2022/06/28 14:23:47;;;;;;;;;;;;;;;;;;8469753;27;27177;-72
2022/06/28 14:27:47;;;;;;;;;;;;;;;;;;8476374;27;28439;-72
2022/06/28 14:31:47;;;;;;;;;;;;;;;;;;8476794;27;27400;-73
2022/06/28 14:35:48;;;;;;;;;;;;;;;;;;8475007;27;27665;-73
2022/06/28 14:39:48;;;;;;;;;;;;;;;;;;8467735;27;27365;-73
2022/06/28 14:43:48;;;;;;;;;;;;;;;;;;8471608;27;27241;-73
2022/06/28 14:47:49;;;;;;;;;;;;;;;;;;8461993;27;27383;-72
2022/06/28 14:51:49;;;;;;;;;;;;;;;;;;8463601;27;27238;-73
2022/06/28 14:55:50;;;;;;;;;;;;;;;;;;8465592;27;27418;-72
2022/06/28 14:59:50;;;;;;;;;;;;;;;;;;8468872;27;27163;-72
2022/06/28 15:03:51;;;;;;;;;;;;;;;;;;8461553;27;27423;-73
2022/06/28 15:07:51;;;;;;;;;;;;;;;;;;8470222;27;27309;-73
2022/06/28 15:11:51;;;;;;;;;;;;;;;;;;8472021;27;29162;-72
2022/06/28 15:15:51;;;;;;;;;;;;;;;;;;8469307;27;27915;-73
2022/06/28 15:19:52;;;;;;;;;;;;;;;;;;8471302;27;27197;-73
2022/06/28 15:32:29;;;;;;;;;;;;;;;;;;8442100;27;27347;-73
2022/06/28 15:36:30;;;;;;;;;;;;;;;;;;8443870;27;27174;-73
2022/06/28 15:40:30;;;;;;;;;;;;;;;;;;8446329;27;27727;-72
2022/06/28 15:44:30;;;;;;;;;;;;;;;;;;8447885;27;27559;-73
2022/06/28 15:48:30;;;;;;;;;;;;;;;;;;8447915;27;27371;-73
2022/06/28 15:52:33;;;;;;;;;;;;;;;;;;8449305;27;47013;-73
2022/06/28 15:56:33;;;;;;;;;;;;;;;;;;8443860;27;27160;-73
2022/06/28 16:00:33;;;;;;;;;;;;;;;;;;8452523;27;28887;-73
2022/06/28 16:04:33;;;;;;;;;;;;;;;;;;8441195;27;28385;-73
2022/06/28 16:08:33;;;;;;;;;;;;;;;;;;8443262;27;46358;-73
2022/06/28 16:12:52;;;;;;;;;;;;;;;;;;8444769;27;27428;-73
2022/06/28 16:16:52;;;;;;;;;;;;;;;;;;8435807;27;28196;-73
2022/06/28 16:20:52;;;;;;;;;;;;;;;;;;8442456;27;27961;-73
2022/06/28 16:24:52;;;;;;;;;;;;;;;;;;8439399;27;27600;-73
2022/06/28 16:28:52;;;;;;;;;;;;;;;;;;8444952;27;27406;-74
2022/06/28 16:32:52;;;;;;;;;;;;;;;;;;8444346;27;27275;-74
2022/06/28 16:36:53;;;;;;;;;;;;;;;;;;8449942;27;27509;-73
2022/06/28 16:40:53;;;;;;;;;;;;;;;;;;8448882;27;29031;-73
2022/06/28 16:44:53;;;;;;;;;;;;;;;;;;8440218;27;28172;-73
2022/06/28 16:48:53;;;;;;;;;;;;;;;;;;8451436;27;27461;-73
2022/06/28 16:52:54;;;;;;;;;;;;;;;;;;8447051;27;27430;-73
2022/06/28 16:56:54;;;;;;;;;;;;;;;;;;8442522;27;27209;-74
2022/06/28 17:00:54;;;;;;;;;;;;;;;;;;8444517;27;27614;-73
2022/06/28 17:04:55;;;;;;;;;;;;;;;;;;8443869;27;27310;-73
2022/06/28 17:08:55;;;;;;;;;;;;;;;;;;8443667;27;27546;-73
2022/06/28 17:12:55;;;;;;;;;;;;;;;;;;8442485;27;27479;-74
2022/06/28 17:16:55;;;;;;;;;;;;;;;;;;8440375;27;28511;-73
2022/06/28 17:20:55;;;;;;;;;;;;;;;;;;8446585;27;28222;-74
2022/06/28 17:24:55;;;;;;;;;;;;;;;;;;8442234;27;28278;-74
2022/06/28 17:28:56;;;;;;;;;;;;;;;;;;8443199;27;27296;-74
2022/06/28 17:32:56;;;;;;;;;;;;;;;;;;8444582;27;27198;-73
2022/06/28 17:36:57;;;;;;;;;;;;;;;;;;8447587;27;28602;-74
2022/06/28 17:40:57;;;;;;;;;;;;;;;;;;8449991;27;28718;-74
2022/06/28 17:44:57;;;;;;;;;;;;;;;;;;8442784;27;28311;-74
2022/06/28 17:48:57;;;;;;;;;;;;;;;;;;8441039;27;27962;-74
2022/06/28 17:52:57;;;;;;;;;;;;;;;;;;8444935;27;27236;-73
2022/06/28 17:56:58;;;;;;;;;;;;;;;;;;8442102;27;27601;-75
2022/06/28 18:00:58;;;;;;;;;;;;;;;;;;8441081;27;27746;-74
2022/06/28 18:04:58;;;;;;;;;;;;;;;;;;8440073;27;27953;-74
2022/06/28 18:08:58;;;;;;;;;;;;;;;;;;8442001;27;27609;-74
2022/06/28 18:12:58;;;;;;;;;;;;;;;;;;8433423;27;27431;-74
2022/06/28 18:16:58;;;;;;;;;;;;;;;;;;8438869;27;27509;-74
2022/06/28 18:20:59;;;;;;;;;;;;;;;;;;8438819;27;27432;-74
2022/06/28 18:24:59;;;;;;;;;;;;;;;;;;8442827;27;28113;-74
2022/06/28 18:28:59;;;;;;;;;;;;;;;;;;8440826;27;27511;-74
2022/06/28 18:32:59;;;;;;;;;;;;;;;;;;8439794;27;29424;-74
2022/06/28 18:36:59;;;;;;;;;;;;;;;;;;8439084;27;27531;-74
2022/06/28 18:40:59;;;;;;;;;;;;;;;;;;8442784;27;27163;-74
2022/06/28 18:45:00;;;;;;;;;;;;;;;;;;8437076;27;27326;-74
2022/06/28 18:49:00;;;;;;;;;;;;;;;;;;8439846;27;27125;-74
2022/06/28 18:53:00;;;;;;;;;;;;;;;;;;8443512;27;27337;-74
2022/06/28 18:57:00;;;;;;;;;;;;;;;;;;8447605;27;28409;-75
2022/06/28 19:01:00;;;;;;;;;;;;;;;;;;8439344;27;27536;-73
2022/06/28 19:05:01;;;;;;;;;;;;;;;;;;8440032;27;27549;-74
2022/06/28 19:09:01;;;;;;;;;;;;;;;;;;8441382;27;27555;-74
2022/06/28 19:13:01;;;;;;;;;;;;;;;;;;8435159;27;28152;-74
2022/06/28 19:17:01;;;;;;;;;;;;;;;;;;8441958;27;27550;-74
2022/06/28 19:21:02;;;;;;;;;;;;;;;;;;8439902;27;27420;-74
2022/06/28 19:25:02;;;;;;;;;;;;;;;;;;8444722;27;27111;-74
2022/06/28 19:29:02;;;;;;;;;;;;;;;;;;8440802;27;29771;-74
2022/06/28 19:33:03;;;;;;;;;;;;;;;;;;8443095;27;27414;-74
2022/06/28 19:37:03;;;;;;;;;;;;;;;;;;8448176;27;27384;-74
2022/06/28 19:41:03;;;;;;;;;;;;;;;;;;8446703;27;27522;-74
2022/06/28 19:45:03;;;;;;;;;;;;;;;;;;8446798;27;27263;-74
2022/06/28 19:49:04;;;;;;;;;;;;;;;;;;8449104;27;27911;-74
2022/06/28 19:53:04;;;;;;;;;;;;;;;;;;8447273;27;27370;-74
2022/06/28 19:57:04;;;;;;;;;;;;;;;;;;8449932;27;27391;-73
2022/06/28 20:01:04;;;;;;;;;;;;;;;;;;8441861;27;27385;-73
2022/06/28 20:05:04;;;;;;;;;;;;;;;;;;8444788;27;27667;-74
2022/06/28 20:09:04;;;;;;;;;;;;;;;;;;8444747;27;27493;-74
2022/06/28 20:13:05;;;;;;;;;;;;;;;;;;8446885;27;27979;-74
2022/06/28 20:17:05;;;;;;;;;;;;;;;;;;8452398;27;29621;-73
2022/06/28 20:21:05;;;;;;;;;;;;;;;;;;8444467;27;27148;-74
2022/06/28 20:25:05;;;;;;;;;;;;;;;;;;8445548;27;27330;-74
2022/06/28 20:29:06;;;;;;;;;;;;;;;;;;8445176;27;27563;-74
2022/06/28 20:33:06;;;;;;;;;;;;;;;;;;8446327;27;27120;-74
2022/06/28 20:37:06;;;;;;;;;;;;;;;;;;8446282;27;27896;-74
2022/06/28 20:45:25;;;;;;;;;;;;;;;;;;8448091;27;27157;-74
2022/06/28 20:49:25;;;;;;;;;;;;;;;;;;8450269;27;27405;-74
2022/06/28 20:53:25;;;;;;;;;;;;;;;;;;8445585;27;27819;-73
2022/06/28 20:57:26;;;;;;;;;;;;;;;;;;8445824;27;27547;-74
2022/06/28 21:01:26;;;;;;;;;;;;;;;;;;8446737;27;27423;-73
2022/06/28 21:05:26;;;;;;;;;;;;;;;;;;8447939;27;27967;-74
2022/06/28 21:09:27;;;;;;;;;;;;;;;;;;8444906;27;27210;-73
2022/06/28 21:13:27;;;;;;;;;;;;;;;;;;8449421;27;27341;-74
2022/06/28 21:17:27;;;;;;;;;;;;;;;;;;8441758;27;27267;-74
2022/06/28 21:21:27;;;;;;;;;;;;;;;;;;8444921;27;27233;-74
2022/06/28 21:25:27;;;;;;;;;;;;;;;;;;8444004;27;27631;-74
2022/06/28 21:29:27;;;;;;;;;;;;;;;;;;8443436;27;27876;-74
2022/06/28 21:33:28;;;;;;;;;;;;;;;;;;8447882;27;27560;-74
2022/06/28 21:37:28;;;;;;;;;;;;;;;;;;8444308;27;27148;-73
2022/06/28 21:41:28;;;;;;;;;;;;;;;;;;8449107;27;27167;-73
2022/06/28 21:45:29;;;;;;;;;;;;;;;;;;8450353;27;27957;-74
2022/06/28 21:49:30;;;;;;;;;;;;;;;;;;8447781;27;29072;-74
2022/06/28 21:53:30;;;;;;;;;;;;;;;;;;8442181;27;27695;-74
2022/06/28 21:57:30;;;;;;;;;;;;;;;;;;8443056;27;27484;-74
2022/06/28 22:01:30;;;;;;;;;;;;;;;;;;8438327;27;27599;-74
2022/06/28 22:05:30;;;;;;;;;;;;;;;;;;8441464;27;27558;-74
2022/06/28 22:09:30;;;;;;;;;;;;;;;;;;8438139;27;27239;-74
2022/06/28 22:13:30;;;;;;;;;;;;;;;;;;8443034;27;27471;-74
2022/06/28 22:17:30;;;;;;;;;;;;;;;;;;8436766;27;27334;-74
2022/06/28 22:21:31;;;;;;;;;;;;;;;;;;8436363;27;27518;-72
2022/06/28 22:25:31;;;;;;;;;;;;;;;;;;8438266;27;29284;-73
2022/06/28 22:29:31;;;;;;;;;;;;;;;;;;8443649;27;27648;-74
2022/06/28 22:33:31;;;;;;;;;;;;;;;;;;8446906;27;27479;-73
2022/06/28 22:37:31;;;;;;;;;;;;;;;;;;8447662;27;27410;-74
2022/06/28 22:41:31;;;;;;;;;;;;;;;;;;8453674;27;28228;-74
2022/06/28 22:45:31;;;;;;;;;;;;;;;;;;8450573;27;27953;-74
2022/06/28 22:49:32;;;;;;;;;;;;;;;;;;8453338;27;28618;-74
2022/06/28 22:53:32;;;;;;;;;;;;;;;;;;8447819;27;27390;-73
2022/06/28 22:57:32;;;;;;;;;;;;;;;;;;8444856;27;27991;-73
2022/06/28 23:01:32;;;;;;;;;;;;;;;;;;8444212;27;27450;-73
2022/06/28 23:05:32;;;;;;;;;;;;;;;;;;8449093;27;27472;-73
2022/06/28 23:09:32;;;;;;;;;;;;;;;;;;8445741;27;27928;-73
2022/06/28 23:13:32;;;;;;;;;;;;;;;;;;8450783;27;29376;-73
2022/06/28 23:17:33;;;;;;;;;;;;;;;;;;8448953;27;28147;-72
2022/06/28 23:21:33;;;;;;;;;;;;;;;;;;8448225;27;27254;-72
2022/06/28 23:25:34;;;;;;;;;;;;;;;;;;8443206;27;27107;-74
2022/06/28 23:29:34;;;;;;;;;;;;;;;;;;8446352;27;27399;-73
2022/06/28 23:33:34;;;;;;;;;;;;;;;;;;8445422;27;27384;-73
2022/06/28 23:37:34;;;;;;;;;;;;;;;;;;8448261;27;27301;-74
2022/06/28 23:41:37;;;;;;;;;;;;;;;;;;8454984;27;29636;-74
2022/06/28 23:45:37;;;;;;;;;;;;;;;;;;8448080;27;27357;-73
2022/06/28 23:49:37;;;;;;;;;;;;;;;;;;8449496;27;27387;-73
2022/06/28 23:53:37;;;;;;;;;;;;;;;;;;8445626;27;27372;-74
2022/06/28 23:57:37;;;;;;;;;;;;;;;;;;8448956;27;27497;-73
